Flight Track Log - Related Links

Times and Time Zones

All times are in EDT time to prevent confusion due to time zone crossing. See the SWA3497 flight status page for this flight to view local times or setup timezone preferences in your user account.

Time Position Orientation Groundspeed Altitude Reporting Facility
EDT Latitude Longitude Course Direction KTS MPH feet Rate Location/Type
Tue 04:14:09 PM 39.1333 -76.6333 284° West 194 223 2,500  Level Potomac TRACON
Tue 04:15:03 PM 39.0833 -76.5833 142° Southeast 228 262 4,800 2,684 Climbing Potomac TRACON
Tue 04:16:03 PM 39.0833 -76.4833 90° East 292 336 7,600 2,806 Climbing Potomac TRACON
Tue 04:18:09 PM 39.1242 -76.2550 77° East 337 388 13,500 3,000 Climbing Washington Center
Tue 04:19:00 PM 39.1654 -76.6270 284° West  Level FlightAware Approximate
Tue 04:19:09 PM 39.1478 -76.1217 77° East 362 417 16,900  Level Washington Center
Tue 04:20:09 PM 39.2003 -75.9961 62° Northeast 377 434 19,500 2,650 Climbing Washington Center
Tue 04:21:09 PM 39.2714 -75.8839 51° Northeast 389 448 22,200 2,550 Climbing Washington Center
Tue 04:22:09 PM 39.3467 -75.7633 51° Northeast 410 472 24,600 2,750 Climbing Washington Center
Tue 04:23:09 PM 39.4239 -75.6425 50° Northeast 423 487 27,700 2,200 Climbing Washington Center
Tue 04:24:09 PM 39.4989 -75.5242 51° Northeast 428 493 29,000 650 Climbing Washington Center
Tue 04:25:09 PM 39.5758 -75.4003 51° Northeast 428 493 29,000  Level Washington Center
Tue 04:26:09 PM 39.6589 -75.2736 50° Northeast 442 509 29,000  Level Washington Center
Tue 04:26:34 PM 39.6936 -75.2306 44° Northeast 448 516 29,000  Level New York Center
Tue 04:27:35 PM 39.7797 -75.1036 49° Northeast 458 527 29,000  Level New York Center
Tue 04:28:35 PM 39.8656 -74.9764 49° Northeast 464 534 29,000  Level New York Center
Tue 04:29:36 PM 39.9600 -74.8414 48° Northeast 474 545 29,000  Level New York Center
Tue 04:30:34 PM 40.0453 -74.7214 47° Northeast 450 518 29,000  Level New York Center
Tue 04:31:35 PM 40.1219 -74.6092 48° Northeast 455 524 29,000  Level New York Center
Tue 04:32:35 PM 40.2200 -74.4758 46° Northeast 455 524 29,000  Level New York Center
Tue 04:33:36 PM 40.3192 -74.3725 38° Northeast 455 524 29,000  Level New York Center
Tue 04:34:36 PM 40.4183 -74.2658 39° Northeast 449 517 29,000  Level New York Center
Tue 04:35:33 PM 40.5172 -74.1589 39° Northeast 449 517 29,000 -918 Level New York Center
Tue 04:37:26 PM 40.6850 -73.9808 39° Northeast 436 502 26,400 -1,690 Descending Boston Center
Tue 04:38:27 PM 40.7761 -73.8789 40° Northeast 428 493 24,100 -1,190 Descending Boston Center
Tue 04:39:27 PM 40.8650 -73.7767 41° Northeast 428 493 24,000 -198 Descending Boston Center
Tue 04:40:28 PM 40.9658 -73.7017 29° Northeast 417 480 23,700 -966 Descending Boston Center
Tue 04:41:25 PM 41.0517 -73.6622 19° North 404 465 22,100 -2,034 Descending Boston Center
Tue 04:42:26 PM 41.1831 -73.6453 North 392 451 19,700 -2,033 Descending Boston Center
Tue 04:43:26 PM 41.2978 -73.6308 North 381 438 18,000 -1,140 Descending Boston Center
Tue 04:44:27 PM 41.3897 -73.6189 North 375 432 17,400 -807 Descending Boston Center
Tue 04:45:25 PM 41.5003 -73.6069 North 369 425 16,400 -958 Descending Boston Center
Tue 04:46:26 PM 41.5900 -73.5919 North 362 417 15,500 -992 Descending Boston Center
Tue 04:47:26 PM 41.7006 -73.5772 North 362 417 14,400 -1,000 Descending Boston Center
Tue 04:48:26 PM 41.7861 -73.5678 North 355 409 13,500 -1,017 Descending Boston Center
Tue 04:49:24 PM 41.8886 -73.5528 North 348 400 12,400 -1,059 Descending Boston Center
Tue 04:50:25 PM 41.9825 -73.5406 North 337 388 11,400 -683 Descending Boston Center
Tue 04:51:27 PM 42.0764 -73.5308 North 336 387 11,000 -200 Descending Boston Center
Tue 04:52:25 PM 42.1575 -73.5294 North 332 382 11,000 -98 Level Boston Center
Tue 04:53:29 PM 42.2556 -73.5342 358° North 319 367 10,800 -756 Descending Boston Center
Tue 04:54:40 PM 42.3533 -73.5469 354° North 302 348 9,300 -1,361 Descending Boston Center
Tue 04:55:28 PM 42.4136 -73.5706 344° North 272 313 8,100 -1,486 Descending Boston Center
Tue 04:56:29 PM 42.4861 -73.6000 343° North 273 314 6,600 -1,463 Descending Boston Center
Tue 04:57:31 PM 42.5608 -73.6325 342° North 265 305 5,100 -1,125 Descending Boston Center
Tue 04:57:49 PM 42.5608 -73.6269 90° East 267 307 5,100 -1,100 Level Boston Center
Tue 04:58:31 PM 42.6378 -73.6508 347° North 274 315 4,000 -1,082 Descending Boston Center
Tue 04:58:50 PM 42.6503 -73.6511 359° North 267 307 4,000 -492 Level Boston Center
Tue 04:59:32 PM 42.7106 -73.6664 349° North 267 307 3,500 -900 Descending Boston Center
Tue 04:59:50 PM 42.7314 -73.6697 353° North 262 302 3,100 -984 Descending Boston Center
Tue 05:00:33 PM 42.7811 -73.6906 343° North 261 300 2,500 -787 Descending Boston Center
Tue 05:00:51 PM 42.7914 -73.6992 328° Northwest 255 293 2,300 -689 Descending Boston Center
Tue 05:01:34 PM 42.8264 -73.7481 314° West 200 230 1,800 -207 Descending Boston Center
Tue 05:01:49 PM 42.8600 -73.7289 23° Northeast 249 287 2,100 -500 Climbing Boston Center
Tue 05:02:34 PM 42.8194 -73.8017 233° Southwest 121 139 1,300 -679 Descending Boston Center
Tue 05:03:35 PM 42.7881 -73.8094 190° South 112 129 900 -393 Descending Boston Center
Tue 05:05:00 PM 42.7491 -73.8020 180° South  Level Estimated
Tue 05:12:00 PM 42.7491 -73.8020 180° South  Level Estimated
Tue 05:13:00 PM 42.7491 -73.8020 180° South  Level Estimated
Tue 05:14:00 PM 42.7491 -73.8020 180° South  Level Estimated

Login

Don't have an account? Register now (free) for customized features, flight alerts, and more!